createdAt,value
2018-10-17T00:01:09.505Z,17.50
2018-10-17T00:03:37.723Z,18.67
2018-10-17T00:06:06.235Z,18.50
2018-10-17T00:08:34.598Z,19.12
2018-10-17T00:11:03.218Z,18.10
2018-10-17T00:13:31.492Z,18.60
2018-10-17T00:15:59.753Z,18.57
2018-10-17T00:18:28.034Z,18.77
2018-10-17T00:20:56.354Z,18.48
2018-10-17T00:23:24.733Z,18.87
2018-10-17T00:25:52.983Z,18.30
2018-10-17T00:28:21.257Z,17.62
2018-10-17T00:30:49.542Z,17.90
2018-10-17T00:33:17.887Z,18.10
2018-10-17T00:35:46.243Z,16.50
2018-10-17T00:38:14.523Z,17.67
2018-10-17T00:40:42.794Z,18.30
2018-10-17T00:43:11.137Z,17.17
2018-10-17T00:45:39.382Z,17.20
2018-10-17T00:48:07.746Z,17.50
2018-10-17T00:50:36.014Z,18.45
2018-10-17T00:53:04.299Z,18.30
2018-10-17T00:55:32.593Z,18.30
2018-10-17T00:58:00.870Z,17.17
2018-10-17T01:00:29.145Z,17.73
2018-10-17T01:02:57.442Z,17.60
2018-10-17T01:05:25.858Z,17.90
2018-10-17T01:07:54.135Z,17.92
2018-10-17T01:10:22.429Z,17.32
2018-10-17T01:12:50.737Z,17.42
2018-10-17T01:15:18.997Z,17.98
2018-10-17T01:17:47.318Z,17.50
2018-10-17T01:20:15.671Z,17.82
2018-10-17T01:22:43.923Z,18.30
2018-10-17T01:25:12.324Z,17.70
2018-10-17T01:27:40.561Z,18.62
2018-10-17T01:30:08.890Z,17.90
2018-10-17T01:32:37.435Z,18.20
2018-10-17T01:35:06.659Z,17.10
2018-10-17T01:37:34.967Z,17.00
2018-10-17T01:40:03.266Z,17.37
2018-10-17T01:42:31.545Z,17.87
2018-10-17T01:44:59.810Z,18.60
2018-10-17T01:47:28.088Z,17.67
2018-10-17T01:49:56.362Z,18.50
2018-10-17T01:52:24.734Z,18.20
2018-10-17T01:54:53.073Z,18.40
2018-10-17T01:57:21.316Z,17.05
2018-10-17T01:59:49.644Z,18.10
2018-10-17T02:02:17.946Z,18.07
2018-10-17T02:04:46.190Z,17.70
2018-10-17T02:07:14.508Z,16.70
2018-10-17T02:09:42.734Z,17.40
2018-10-17T02:12:11.034Z,17.45
2018-10-17T02:14:39.312Z,16.75
2018-10-17T02:17:07.898Z,17.80
2018-10-17T02:19:36.131Z,17.20
2018-10-17T02:22:04.413Z,17.87
2018-10-17T02:24:32.756Z,17.30
2018-10-17T02:27:01.038Z,17.10
2018-10-17T02:29:29.422Z,17.00
2018-10-17T02:31:57.666Z,16.85
2018-10-17T02:34:25.938Z,17.62
2018-10-17T02:36:54.200Z,17.92
2018-10-17T02:39:22.520Z,18.00
2018-10-17T02:41:50.843Z,17.57
2018-10-17T02:44:19.117Z,16.67
2018-10-17T02:46:48.465Z,16.70
2018-10-17T02:49:16.831Z,17.40
2018-10-17T02:51:45.046Z,17.80
2018-10-17T02:54:13.307Z,17.25
2018-10-17T02:56:41.575Z,17.40
2018-10-17T02:59:09.907Z,16.70
2018-10-17T03:01:38.158Z,16.85
2018-10-17T03:04:06.476Z,17.90
2018-10-17T03:06:34.779Z,17.17
2018-10-17T03:09:03.100Z,17.98
2018-10-17T03:11:31.375Z,18.25
2018-10-17T03:13:59.619Z,18.10
2018-10-17T03:16:27.915Z,18.25
2018-10-17T03:18:56.175Z,17.97
2018-10-17T03:21:24.460Z,18.33
2018-10-17T03:23:52.723Z,18.37
2018-10-17T03:26:21.003Z,18.23
2018-10-17T03:28:49.317Z,17.17
2018-10-17T03:31:17.746Z,18.10
2018-10-17T03:33:45.883Z,18.12
2018-10-17T03:36:14.183Z,18.65
2018-10-17T03:38:42.444Z,18.67
2018-10-17T03:41:10.749Z,17.55
2018-10-17T03:43:39.028Z,17.60
2018-10-17T03:46:07.315Z,17.50
2018-10-17T03:48:35.583Z,18.80
2018-10-17T03:51:03.878Z,19.15
2018-10-17T03:53:32.251Z,19.03
2018-10-17T03:56:00.575Z,19.12
2018-10-17T03:58:28.817Z,18.27
2018-10-17T04:00:57.110Z,18.50
2018-10-17T04:03:25.391Z,18.70
2018-10-17T04:05:53.678Z,18.60
2018-10-17T04:08:21.999Z,18.45
2018-10-17T04:10:50.274Z,19.00
2018-10-17T04:13:18.631Z,18.87
2018-10-17T04:15:46.881Z,18.30
2018-10-17T04:18:15.163Z,20.43
2018-10-17T04:20:43.494Z,18.63
2018-10-17T04:23:11.943Z,19.00
2018-10-17T04:25:40.095Z,21.50
2018-10-17T04:28:08.403Z,18.65
2018-10-17T04:30:36.775Z,19.42
2018-10-17T04:33:05.262Z,18.60
2018-10-17T04:35:33.579Z,18.83
2018-10-17T04:38:01.864Z,17.70
2018-10-17T04:40:30.164Z,18.55
2018-10-17T04:42:58.456Z,20.43
2018-10-17T04:45:26.736Z,19.07
2018-10-17T04:47:55.019Z,18.67
2018-10-17T04:50:23.314Z,19.50
2018-10-17T04:52:51.667Z,18.90
2018-10-17T04:55:19.963Z,18.30
2018-10-17T04:57:48.187Z,19.23
2018-10-17T05:00:16.466Z,18.65
2018-10-17T05:02:44.760Z,17.80
2018-10-17T05:05:13.560Z,18.57
2018-10-17T05:07:41.838Z,18.60
2018-10-17T05:10:10.107Z,19.90
2018-10-17T05:12:38.383Z,18.87
2018-10-17T05:15:06.781Z,19.85
2018-10-17T05:17:35.021Z,19.70
2018-10-17T05:20:03.519Z,20.40
2018-10-17T05:22:31.839Z,19.12
2018-10-17T05:25:00.177Z,19.10
2018-10-17T05:27:28.475Z,18.50
2018-10-17T05:29:56.955Z,19.00
2018-10-17T05:32:25.224Z,18.80
2018-10-17T05:34:53.512Z,17.65
2018-10-17T05:37:21.784Z,18.55
2018-10-17T05:39:50.058Z,18.32
2018-10-17T05:42:18.315Z,18.10
2018-10-17T05:44:46.579Z,17.35
2018-10-17T05:47:14.978Z,18.32
2018-10-17T05:49:43.239Z,18.07
2018-10-17T05:52:11.496Z,18.00
2018-10-17T05:54:39.771Z,18.17
2018-10-17T05:57:08.068Z,17.77
2018-10-17T05:59:36.394Z,18.05
2018-10-17T06:02:14.077Z,18.40
2018-10-17T06:04:42.255Z,17.30
2018-10-17T06:07:10.655Z,17.70
2018-10-17T06:09:38.896Z,18.12
2018-10-17T06:12:07.209Z,18.35
2018-10-17T06:14:35.541Z,18.85
2018-10-17T06:17:03.878Z,18.20
2018-10-17T06:19:32.135Z,19.15
2018-10-17T06:22:00.444Z,18.90
2018-10-17T06:24:28.745Z,17.60
2018-10-17T06:26:56.990Z,18.07
2018-10-17T06:29:25.587Z,17.85
2018-10-17T06:31:53.891Z,17.70
2018-10-17T06:34:22.305Z,19.20
2018-10-17T06:36:50.516Z,17.20
2018-10-17T06:39:21.679Z,17.50
2018-10-17T06:41:49.937Z,19.00
2018-10-17T06:44:18.179Z,18.90
2018-10-17T06:46:46.477Z,17.90
2018-10-17T06:49:14.824Z,18.90
2018-10-17T06:51:43.046Z,17.87
2018-10-17T06:54:11.336Z,18.65
2018-10-17T06:56:39.643Z,18.50
2018-10-17T06:59:07.997Z,17.60
2018-10-17T07:01:36.303Z,18.20
2018-10-17T07:04:04.869Z,17.60
2018-10-17T07:06:33.144Z,18.80
2018-10-17T07:09:01.519Z,18.00
2018-10-17T07:11:29.798Z,18.95
2018-10-17T07:13:58.107Z,18.62
2018-10-17T07:16:26.531Z,18.15
2018-10-17T07:18:54.825Z,18.87
2018-10-17T07:21:23.111Z,18.75
2018-10-17T07:23:51.386Z,20.12
2018-10-17T07:26:19.705Z,20.90
2018-10-17T07:28:48.006Z,20.10
2018-10-17T07:31:16.405Z,20.87
2018-10-17T07:33:44.506Z,20.30
2018-10-17T07:36:12.812Z,19.70
2018-10-17T07:38:41.061Z,20.50
2018-10-17T07:41:09.554Z,20.20
2018-10-17T07:43:37.827Z,19.92
2018-10-17T07:46:06.130Z,19.17
2018-10-17T07:48:34.608Z,18.87
2018-10-17T07:51:03.383Z,18.30
2018-10-17T07:53:31.699Z,17.73
2018-10-17T07:56:00.092Z,18.55
2018-10-17T07:58:28.407Z,18.87
2018-10-17T08:00:56.699Z,17.62
2018-10-17T08:03:25.026Z,18.05
2018-10-17T08:05:53.385Z,18.02
2018-10-17T08:08:21.691Z,17.40
2018-10-17T08:10:50.021Z,18.67
2018-10-17T08:13:18.291Z,17.60
2018-10-17T08:15:46.540Z,17.20
2018-10-17T08:18:14.855Z,17.67
2018-10-17T08:20:43.095Z,18.35
2018-10-17T08:23:11.363Z,18.15
2018-10-17T08:25:39.726Z,17.23
2018-10-17T08:28:08.072Z,17.67
2018-10-17T08:30:36.368Z,17.42
2018-10-17T08:33:04.845Z,16.82
2018-10-17T08:35:33.255Z,17.57
2018-10-17T08:38:01.432Z,16.87
2018-10-17T08:40:29.706Z,16.17
2018-10-17T08:42:58.006Z,16.80
2018-10-17T08:45:26.284Z,16.50
2018-10-17T08:47:54.587Z,15.70
2018-10-17T08:50:22.860Z,16.13
2018-10-17T08:52:51.138Z,16.80
2018-10-17T08:55:19.467Z,16.07
2018-10-17T08:57:47.798Z,15.80
2018-10-17T09:00:16.020Z,15.28
2018-10-17T09:02:44.311Z,14.93
2018-10-17T09:05:12.606Z,14.30
2018-10-17T09:07:40.925Z,14.80
2018-10-17T09:10:09.238Z,14.65
2018-10-17T09:12:37.537Z,13.60
2018-10-17T09:15:06.503Z,14.90
2018-10-17T09:17:34.762Z,14.70
2018-10-17T09:20:03.557Z,14.70
2018-10-17T09:22:31.468Z,14.40
2018-10-17T09:25:06.524Z,14.90
2018-10-17T09:27:34.807Z,13.27
2018-10-17T09:30:03.155Z,14.47
2018-10-17T09:32:31.408Z,14.30
2018-10-17T09:34:59.882Z,13.10
2018-10-17T09:37:28.113Z,12.93
2018-10-17T09:39:56.442Z,13.90
2018-10-17T09:42:24.751Z,11.85
2018-10-17T09:44:53.028Z,12.60
2018-10-17T09:47:21.359Z,11.70
2018-10-17T09:49:49.639Z,11.67
2018-10-17T09:52:17.928Z,12.13
2018-10-17T09:54:46.198Z,11.23
2018-10-17T09:57:14.507Z,12.60
2018-10-17T09:59:42.794Z,12.30
2018-10-17T10:02:11.154Z,13.07
2018-10-17T10:04:45.227Z,11.33
2018-10-17T10:07:13.511Z,10.65
2018-10-17T10:09:41.794Z,11.20
2018-10-17T10:12:10.081Z,10.40
2018-10-17T10:14:38.348Z,11.80
2018-10-17T10:17:06.696Z,11.20
2018-10-17T10:19:34.930Z,11.83
2018-10-17T10:22:03.256Z,11.70
2018-10-17T10:24:31.560Z,14.50
2018-10-17T10:26:59.869Z,16.20
2018-10-17T10:29:28.186Z,16.25
2018-10-17T10:31:56.472Z,16.00
2018-10-17T10:34:24.775Z,17.20
2018-10-17T10:36:53.028Z,15.40
2018-10-17T10:39:21.416Z,16.40
2018-10-17T10:41:49.687Z,16.30
2018-10-17T10:44:18.050Z,16.82
2018-10-17T10:46:47.151Z,16.00
2018-10-17T10:49:15.479Z,15.48
2018-10-17T10:51:43.748Z,15.30
2018-10-17T10:54:12.051Z,15.50
2018-10-17T10:56:40.211Z,15.37
2018-10-17T10:59:08.550Z,15.60
2018-10-17T11:01:36.791Z,14.90
2018-10-17T11:04:05.687Z,14.18
2018-10-17T11:06:34.076Z,15.30
2018-10-17T11:09:02.374Z,15.83
2018-10-17T11:11:30.663Z,14.87
2018-10-17T11:13:58.964Z,14.00
2018-10-17T11:16:27.407Z,15.13
2018-10-17T11:18:55.651Z,15.32
2018-10-17T11:21:23.943Z,17.55
2018-10-17T11:23:52.217Z,16.93
2018-10-17T11:26:20.495Z,16.53
2018-10-17T11:28:48.818Z,15.67
2018-10-17T11:31:17.158Z,15.63
2018-10-17T11:33:45.392Z,15.43
2018-10-17T11:36:13.688Z,15.50
2018-10-17T11:38:41.964Z,15.80
2018-10-17T11:41:10.331Z,19.17
2018-10-17T11:43:38.543Z,23.50
2018-10-17T11:46:06.798Z,24.35
2018-10-17T11:48:35.087Z,30.77
2018-10-17T11:51:03.353Z,17.55
2018-10-17T11:53:31.636Z,17.85
2018-10-17T11:55:59.914Z,17.48
2018-10-17T11:58:28.406Z,25.80
2018-10-17T12:00:56.788Z,17.10
2018-10-17T12:03:25.171Z,19.62
2018-10-17T12:05:53.739Z,16.82
2018-10-17T12:08:21.806Z,16.87
2018-10-17T12:10:50.100Z,21.90
2018-10-17T12:13:18.395Z,16.67
2018-10-17T12:15:46.691Z,30.25
2018-10-17T12:18:15.054Z,22.37
2018-10-17T12:20:43.308Z,15.98
2018-10-17T12:23:11.605Z,20.23
2018-10-17T12:25:39.928Z,19.05
2018-10-17T12:28:08.404Z,18.30
2018-10-17T12:30:36.602Z,16.65
2018-10-17T12:33:04.910Z,16.45
2018-10-17T12:35:33.187Z,16.40
2018-10-17T12:38:01.469Z,17.53
2018-10-17T12:40:29.929Z,17.90
2018-10-17T12:42:58.111Z,18.25
2018-10-17T12:45:26.466Z,19.40
2018-10-17T12:47:54.712Z,17.30
2018-10-17T12:50:23.001Z,18.77
2018-10-17T12:52:51.357Z,14.80
2018-10-17T12:55:19.567Z,13.68
2018-10-17T12:57:47.926Z,15.60
2018-10-17T13:00:16.195Z,14.80
2018-10-17T13:02:44.462Z,16.20
2018-10-17T13:05:12.815Z,15.68
2018-10-17T13:07:41.142Z,15.05
2018-10-17T13:10:10.327Z,15.98
2018-10-17T13:12:38.566Z,14.00
2018-10-17T13:15:08.240Z,14.50
2018-10-17T13:17:36.521Z,16.00
2018-10-17T13:20:04.823Z,15.95
2018-10-17T13:22:33.104Z,14.40
2018-10-17T13:25:01.444Z,14.28
2018-10-17T13:27:29.691Z,13.50
2018-10-17T13:29:57.936Z,14.53
2018-10-17T13:32:26.347Z,13.80
2018-10-17T13:34:54.660Z,16.12
2018-10-17T13:37:22.945Z,13.70
2018-10-17T13:39:51.720Z,14.95
2018-10-17T13:42:20.112Z,12.23
2018-10-17T13:44:48.402Z,13.03
2018-10-17T13:47:16.911Z,12.63
2018-10-17T13:49:45.221Z,13.53
2018-10-17T13:52:13.455Z,13.30
2018-10-17T13:54:41.783Z,13.30
2018-10-17T13:57:10.095Z,13.55
2018-10-17T13:59:38.398Z,12.20
2018-10-17T14:02:06.704Z,12.35
2018-10-17T14:04:34.951Z,13.03
2018-10-17T14:07:03.220Z,12.80
2018-10-17T14:09:31.505Z,13.47
2018-10-17T14:11:59.791Z,12.70
2018-10-17T14:14:28.231Z,13.40
2018-10-17T14:16:56.507Z,13.48
2018-10-17T14:19:24.787Z,13.80
2018-10-17T14:21:53.097Z,13.40
2018-10-17T14:24:21.401Z,13.55
2018-10-17T14:26:49.691Z,12.80
2018-10-17T14:29:17.993Z,13.10
2018-10-17T14:31:46.344Z,13.45
2018-10-17T14:34:14.635Z,12.73
2018-10-17T14:36:42.895Z,12.00
2018-10-17T14:39:12.804Z,12.60
2018-10-17T14:41:41.044Z,12.05
2018-10-17T14:44:09.546Z,13.03
2018-10-17T14:46:37.832Z,11.78
2018-10-17T14:49:06.351Z,12.15
2018-10-17T14:51:34.623Z,13.00
2018-10-17T14:54:02.897Z,12.95
2018-10-17T14:56:31.192Z,13.30
2018-10-17T14:58:59.589Z,12.27
2018-10-17T15:01:27.879Z,13.68
2018-10-17T15:03:56.172Z,13.20
2018-10-17T15:06:24.446Z,13.30
2018-10-17T15:09:00.073Z,14.03
2018-10-17T15:11:28.476Z,13.80
2018-10-17T15:13:56.670Z,12.93
2018-10-17T15:16:24.944Z,13.13
2018-10-17T15:18:53.226Z,13.20
2018-10-17T15:21:21.516Z,12.20
2018-10-17T15:23:49.806Z,11.48
2018-10-17T15:26:18.080Z,12.58
2018-10-17T15:28:46.334Z,12.28
2018-10-17T15:31:14.719Z,12.27
2018-10-17T15:33:43.195Z,15.37
2018-10-17T15:36:11.517Z,12.75
2018-10-17T15:38:40.027Z,13.20
2018-10-17T15:41:08.382Z,12.78
2018-10-17T15:43:36.780Z,12.70
2018-10-17T15:46:05.161Z,13.10
2018-10-17T15:48:33.497Z,12.70
2018-10-17T15:51:01.791Z,12.58
2018-10-17T15:53:30.107Z,13.40
2018-10-17T15:55:58.326Z,12.93
2018-10-17T15:58:26.600Z,14.15
2018-10-17T16:00:54.917Z,13.38
2018-10-17T16:03:23.121Z,12.98
2018-10-17T16:05:53.104Z,12.90
2018-10-17T16:08:23.730Z,13.13
2018-10-17T16:10:52.011Z,12.75
2018-10-17T16:13:20.276Z,11.83
2018-10-17T16:15:48.534Z,13.08
2018-10-17T16:18:16.897Z,12.90
2018-10-17T16:20:45.054Z,12.30
2018-10-17T16:23:13.425Z,20.27
2018-10-17T16:25:41.621Z,14.75
2018-10-17T16:28:09.862Z,15.72
2018-10-17T16:30:38.198Z,19.05
2018-10-17T16:33:06.405Z,14.98
2018-10-17T16:35:34.644Z,14.15
2018-10-17T16:38:02.955Z,13.10
2018-10-17T16:40:31.129Z,12.07
2018-10-17T16:42:59.657Z,14.33
2018-10-17T16:45:27.931Z,15.25
2018-10-17T16:47:56.229Z,15.35
2018-10-17T16:50:24.460Z,13.47
2018-10-17T16:52:52.614Z,13.83
2018-10-17T16:55:20.861Z,12.63
2018-10-17T16:57:49.105Z,13.10
2018-10-17T17:00:17.482Z,12.75
2018-10-17T17:02:45.637Z,12.53
2018-10-17T17:05:14.937Z,12.98
2018-10-17T17:07:43.176Z,12.98
2018-10-17T17:10:12.617Z,12.82
2018-10-17T17:12:40.849Z,13.98
2018-10-17T17:15:09.170Z,12.98
2018-10-17T17:17:37.405Z,13.18
2018-10-17T17:20:07.253Z,14.07
2018-10-17T17:22:35.560Z,15.60
2018-10-17T17:25:03.889Z,15.75
2018-10-17T17:27:32.149Z,15.10
2018-10-17T17:30:00.460Z,16.80
2018-10-17T17:32:28.693Z,16.90
2018-10-17T17:34:56.965Z,17.23
2018-10-17T17:37:25.264Z,18.40
2018-10-17T17:39:53.548Z,18.27
2018-10-17T17:42:21.803Z,19.77
2018-10-17T17:44:50.146Z,17.17
2018-10-17T17:47:18.394Z,17.20
2018-10-17T17:49:46.636Z,16.30
2018-10-17T17:52:14.936Z,16.45
2018-10-17T17:54:43.177Z,16.27
2018-10-17T17:57:11.425Z,17.95
2018-10-17T17:59:39.681Z,16.55
2018-10-17T18:02:07.957Z,16.42
2018-10-17T18:04:36.255Z,16.35
2018-10-17T18:07:04.544Z,18.05
2018-10-17T18:09:32.786Z,17.48
2018-10-17T18:12:01.051Z,17.60
2018-10-17T18:14:29.297Z,18.57
2018-10-17T18:16:57.566Z,20.65
2018-10-17T18:19:25.806Z,22.40
2018-10-17T18:21:54.092Z,21.50
2018-10-17T18:24:22.371Z,24.20
2018-10-17T18:26:50.595Z,23.95
2018-10-17T18:29:18.854Z,24.05
2018-10-17T18:31:47.097Z,23.35
2018-10-17T18:34:15.394Z,24.12
2018-10-17T18:36:43.664Z,25.10
2018-10-17T18:39:11.881Z,25.15
2018-10-17T18:41:40.131Z,25.20
2018-10-17T18:44:08.409Z,25.50
2018-10-17T18:46:36.706Z,28.57
2018-10-17T18:49:05.037Z,29.42
2018-10-17T18:51:33.273Z,41.65
2018-10-17T18:54:01.530Z,41.15
2018-10-17T18:56:29.837Z,45.70
2018-10-17T18:58:58.313Z,46.18
2018-10-17T19:01:26.597Z,43.78
2018-10-17T19:03:54.821Z,45.08
2018-10-17T19:06:23.045Z,44.80
2018-10-17T19:08:51.274Z,45.83
2018-10-17T19:11:19.581Z,44.67
2018-10-17T19:13:47.839Z,45.50
2018-10-17T19:16:16.130Z,46.90
2018-10-17T19:18:44.330Z,46.58
2018-10-17T19:21:12.685Z,48.78
2018-10-17T19:23:40.845Z,50.33
2018-10-17T19:26:09.104Z,43.63
2018-10-17T19:28:37.349Z,44.55
2018-10-17T19:31:05.761Z,42.08
2018-10-17T19:33:34.013Z,43.68
2018-10-17T19:36:02.252Z,43.15
2018-10-17T19:38:30.489Z,45.55
2018-10-17T19:40:58.733Z,43.23
2018-10-17T19:43:27.301Z,45.33
2018-10-17T19:45:55.565Z,47.00
2018-10-17T19:48:23.831Z,47.33
2018-10-17T19:50:52.044Z,43.45
2018-10-17T19:53:20.297Z,47.75
2018-10-17T19:55:48.567Z,45.98
2018-10-17T19:58:16.809Z,45.60
2018-10-17T20:00:45.049Z,47.38
2018-10-17T20:03:14.188Z,45.75
2018-10-17T20:05:42.341Z,45.00
2018-10-17T20:08:10.600Z,47.27
2018-10-17T20:10:38.865Z,44.93
2018-10-17T20:13:07.086Z,47.55
2018-10-17T20:15:35.331Z,46.07
2018-10-17T20:18:03.561Z,48.35
2018-10-17T20:20:31.781Z,47.67
2018-10-17T20:23:00.041Z,50.43
2018-10-17T20:25:28.281Z,49.15
2018-10-17T20:27:56.506Z,49.65
2018-10-17T20:30:24.742Z,49.35
2018-10-17T20:32:53.014Z,48.92
2018-10-17T20:35:21.253Z,49.20
2018-10-17T20:37:49.528Z,49.53
2018-10-17T20:40:17.794Z,46.53
2018-10-17T20:42:46.066Z,49.03
2018-10-17T20:45:14.320Z,47.33
2018-10-17T20:47:42.557Z,48.28
2018-10-17T20:50:10.869Z,52.03
2018-10-17T20:52:39.091Z,48.80
2018-10-17T20:55:07.332Z,47.78
2018-10-17T20:57:35.581Z,47.15
2018-10-17T21:00:03.873Z,50.95
2018-10-17T21:02:32.144Z,49.87
2018-10-17T21:05:00.390Z,49.23
2018-10-17T21:07:28.616Z,51.17
2018-10-17T21:09:56.873Z,49.10
2018-10-17T21:12:25.117Z,49.40
2018-10-17T21:14:53.369Z,49.67
2018-10-17T21:17:21.605Z,49.08
2018-10-17T21:19:49.844Z,49.60
2018-10-17T21:22:18.134Z,51.55
2018-10-17T21:24:46.385Z,50.00
2018-10-17T21:27:14.657Z,46.35
2018-10-17T21:29:42.907Z,49.05
2018-10-17T21:32:11.257Z,48.68
2018-10-17T21:34:39.449Z,49.40
2018-10-17T21:37:07.693Z,48.17
2018-10-17T21:39:35.985Z,47.43
2018-10-17T21:42:04.448Z,48.15
2018-10-17T21:44:32.688Z,51.10
2018-10-17T21:47:00.953Z,46.73
2018-10-17T21:49:29.199Z,47.87
2018-10-17T21:51:57.493Z,46.67
2018-10-17T21:54:25.712Z,47.57
2018-10-17T21:56:53.953Z,48.60
2018-10-17T21:59:22.189Z,49.20
2018-10-17T22:01:50.472Z,50.63
2018-10-17T22:04:18.693Z,49.17
2018-10-17T22:06:46.925Z,50.37
2018-10-17T22:09:15.157Z,48.83
2018-10-17T22:11:43.429Z,47.63
2018-10-17T22:14:11.799Z,50.97
2018-10-17T22:16:45.345Z,49.23
2018-10-17T22:19:14.009Z,48.98
2018-10-17T22:21:42.117Z,49.63
2018-10-17T22:24:10.381Z,50.85
2018-10-17T22:26:38.661Z,50.52
2018-10-17T22:29:06.890Z,51.20
2018-10-17T22:31:35.129Z,49.93
2018-10-17T22:34:03.446Z,50.55
2018-10-17T22:36:31.725Z,49.58
2018-10-17T22:39:00.002Z,49.48
2018-10-17T22:41:28.260Z,49.83
2018-10-17T22:43:56.513Z,48.73
2018-10-17T22:46:24.791Z,49.50
2018-10-17T22:48:53.070Z,50.30
2018-10-17T22:51:21.325Z,52.62
2018-10-17T22:53:49.609Z,52.40
2018-10-17T22:56:17.938Z,50.65
2018-10-17T22:58:46.089Z,51.70
2018-10-17T23:01:14.322Z,52.93
2018-10-17T23:03:42.554Z,52.80
2018-10-17T23:06:10.825Z,53.25
2018-10-17T23:08:39.070Z,54.33
2018-10-17T23:11:07.638Z,53.13
2018-10-17T23:13:35.867Z,52.73
2018-10-17T23:16:04.113Z,52.67
2018-10-17T23:18:32.383Z,55.95
2018-10-17T23:21:00.618Z,53.38
2018-10-17T23:23:28.957Z,51.60
2018-10-17T23:25:57.202Z,52.15
2018-10-17T23:28:25.469Z,52.40
2018-10-17T23:30:53.689Z,54.75
2018-10-17T23:33:21.998Z,52.83
2018-10-17T23:35:50.257Z,53.17
2018-10-17T23:38:18.841Z,51.33
2018-10-17T23:40:47.105Z,53.13
2018-10-17T23:43:15.335Z,54.30
2018-10-17T23:45:43.557Z,53.20
2018-10-17T23:48:11.854Z,55.07
2018-10-17T23:50:40.022Z,54.07
2018-10-17T23:53:08.929Z,53.13
2018-10-17T23:55:37.141Z,53.00
2018-10-17T23:58:05.593Z,53.60
